Time;durP1;ratioP1;P1;durP2;ratioP2;P2;SDS_P1;SDS_P2;PMS_P1;PMS_P2;Temp;Humidity;BMP_temperature;BMP_pressure;BME280_temperature;BME280_humidity;BME280_pressure;Samples;Min_cycle;Max_cycle;Signal;HPM_P1;HPM_P2
2021/06/09 00:01:12;;;;;;;;;7.00;6.75;;;;;18.50;57.25;100418.00;5002152;28;55522;-76
2021/06/09 00:03:38;;;;;;;;;7.00;5.25;;;;;18.53;57.46;100422.38;5004889;28;52541;-76
2021/06/09 00:06:03;;;;;;;;;7.00;5.25;;;;;18.44;57.12;100404.78;5003276;28;44904;-75
2021/06/09 00:08:29;;;;;;;;;6.00;6.00;;;;;18.45;57.68;100419.13;4999162;28;45470;-75
2021/06/09 00:10:55;;;;;;;;;5.75;5.75;;;;;18.41;57.41;100416.53;5002937;28;55270;-75
2021/06/09 00:13:22;;;;;;;;;4.50;4.50;;;;;18.32;57.36;100402.59;5001429;28;45266;-76
2021/06/09 00:15:48;;;;;;;;;6.00;6.00;;;;;18.38;57.08;100414.00;5001784;28;44877;-75
2021/06/09 00:18:14;;;;;;;;;7.00;6.00;;;;;18.32;56.54;100406.16;5001858;28;44990;-75
2021/06/09 00:20:39;;;;;;;;;7.00;5.50;;;;;18.27;56.75;100397.41;4998595;28;44811;-76
2021/06/09 00:23:05;;;;;;;;;4.25;4.25;;;;;18.31;57.41;100404.41;5000460;28;55146;-74
2021/06/09 00:25:31;;;;;;;;;5.50;5.50;;;;;18.28;57.54;100408.09;5001275;28;47280;-78
2021/06/09 00:27:57;;;;;;;;;9.00;6.00;;;;;18.24;57.36;100402.91;4985384;28;47353;-79
2021/06/09 00:30:30;;;;;;;;;5.00;5.00;;;;;18.24;57.15;100408.28;4999149;28;45376;-74
2021/06/09 00:32:56;;;;;;;;;5.25;5.25;;;;;18.23;57.04;100414.63;4999679;28;45091;-76
2021/06/09 00:35:22;;;;;;;;;6.25;6.00;;;;;18.14;57.40;100398.84;5002400;28;44852;-74
2021/06/09 00:37:48;;;;;;;;;6.75;5.75;;;;;18.22;57.07;100421.84;5000341;28;45818;-75
2021/06/09 00:40:13;;;;;;;;;7.25;5.00;;;;;18.20;57.63;100421.00;5025209;23;53048;-81
2021/06/09 00:42:39;;;;;;;;;6.25;6.25;;;;;18.12;57.66;100399.78;4999680;28;44944;-81
2021/06/09 00:45:06;;;;;;;;;6.00;4.50;;;;;18.12;57.33;100407.84;5005637;28;44736;-84
2021/06/09 00:47:32;;;;;;;;;6.00;6.00;;;;;18.12;57.83;100409.69;5001969;28;45147;-85
2021/06/09 00:49:57;;;;;;;;;7.00;7.00;;;;;17.99;57.92;100401.19;5004387;28;44774;-80
2021/06/09 00:52:25;;;;;;;;;7.00;5.50;;;;;17.96;57.89;100395.94;5005836;28;44675;-83
2021/06/09 00:54:51;;;;;;;;;7.25;6.50;;;;;18.00;57.23;100402.09;4999547;28;44911;-84
2021/06/09 00:57:17;;;;;;;;;5.00;5.00;;;;;17.92;57.58;100399.66;5021922;28;45127;-85
2021/06/09 00:59:42;;;;;;;;;6.50;5.50;;;;;17.96;57.47;100401.31;5003535;28;44918;-81
2021/06/09 01:02:08;;;;;;;;;8.75;6.00;;;;;17.94;57.14;100392.41;5004528;28;45008;-78
2021/06/09 01:04:34;;;;;;;;;6.50;5.00;;;;;17.89;57.61;100389.00;5002208;28;45068;-78
2021/06/09 01:07:01;;;;;;;;;5.00;5.00;;;;;17.92;57.62;100395.19;5000920;28;56419;-84
2021/06/09 01:09:26;;;;;;;;;7.00;6.00;;;;;17.87;57.24;100380.16;5004047;28;45284;-85
2021/06/09 01:11:52;;;;;;;;;5.50;5.50;;;;;17.96;57.79;100398.63;5004478;28;45053;-82
2021/06/09 01:14:17;;;;;;;;;4.50;4.50;;;;;17.86;57.21;100370.31;5001864;28;44834;-83
2021/06/09 01:16:43;;;;;;;;;6.75;5.00;;;;;17.90;57.29;100378.19;5002130;28;55050;-75
2021/06/09 01:19:08;;;;;;;;;8.50;6.25;;;;;17.91;57.14;100376.38;5001152;28;44863;-75
2021/06/09 01:21:34;;;;;;;;;8.25;7.00;;;;;17.88;57.29;100372.00;4985065;28;45297;-76
2021/06/09 01:24:02;;;;;;;;;7.25;6.00;;;;;17.92;57.01;100379.03;5000643;28;45943;-78
2021/06/09 01:26:30;;;;;;;;;5.75;5.75;;;;;17.95;57.03;100391.47;4999804;28;45224;-78
2021/06/09 01:28:57;;;;;;;;;7.25;7.00;;;;;17.94;57.19;100381.63;4998794;28;46343;-78
2021/06/09 01:31:24;;;;;;;;;4.50;4.50;;;;;17.88;56.96;100380.06;4982665;28;44809;-77
2021/06/09 01:33:50;;;;;;;;;8.25;6.00;;;;;17.90;56.94;100385.38;4999125;28;44793;-79
2021/06/09 01:36:16;;;;;;;;;6.25;6.00;;;;;17.93;56.68;100386.16;5000897;28;46343;-80
2021/06/09 01:38:41;;;;;;;;;6.75;6.00;;;;;17.93;56.96;100386.16;4983510;28;44822;-77
2021/06/09 01:41:07;;;;;;;;;9.50;5.25;;;;;17.82;56.72;100358.81;5001821;28;48359;-76
2021/06/09 01:43:32;;;;;;;;;10.25;6.50;;;;;17.85;56.70;100374.81;5002252;28;51327;-75
2021/06/09 01:45:58;;;;;;;;;5.75;5.75;;;;;17.88;57.04;100379.22;4999336;28;45187;-82
2021/06/09 01:48:23;;;;;;;;;8.00;6.00;;;;;17.89;56.86;100383.63;5001172;28;44798;-76
2021/06/09 01:50:49;;;;;;;;;5.25;5.00;;;;;17.90;57.25;100382.69;5001210;28;45113;-78
2021/06/09 01:53:14;;;;;;;;;6.50;5.25;;;;;17.87;56.32;100374.75;5000851;28;44882;-75
2021/06/09 01:55:40;;;;;;;;;10.25;6.50;;;;;17.89;56.31;100376.44;5000464;28;45238;-79
2021/06/09 01:58:11;;;;;;;;;5.25;5.25;;;;;17.77;56.27;100364.38;4998704;28;45459;-79
2021/06/09 02:00:40;;;;;;;;;6.50;5.50;;;;;17.86;56.21;100381.94;4999768;28;45014;-75
2021/06/09 02:03:06;;;;;;;;;8.00;4.50;;;;;17.88;56.97;100381.91;4998782;28;45267;-75
2021/06/09 02:05:33;;;;;;;;;5.75;5.00;;;;;17.88;56.52;100379.22;4998375;28;45444;-76
2021/06/09 02:08:02;;;;;;;;;6.50;4.00;;;;;17.86;56.42;100378.38;4995882;28;45383;-82
2021/06/09 02:10:28;;;;;;;;;7.50;6.00;;;;;17.86;56.75;100376.56;4997013;28;44936;-81
2021/06/09 02:12:57;;;;;;;;;6.50;4.75;;;;;17.85;56.86;100376.63;4984879;28;44915;-75
2021/06/09 02:15:26;;;;;;;;;6.00;5.00;;;;;17.84;56.58;100370.34;5000485;28;45286;-75
2021/06/09 02:18:17;;;;;;;;;5.25;5.25;;;;;17.85;56.86;100371.25;4996137;28;46001;-77
2021/06/09 02:20:53;;;;;;;;;4.75;4.75;;;;;17.83;56.87;100382.06;5001062;28;48287;-81
2021/06/09 02:23:21;;;;;;;;;4.00;4.00;;;;;17.77;56.85;100372.44;5000163;28;44938;-77
2021/06/09 02:25:50;;;;;;;;;4.25;4.25;;;;;17.75;56.88;100370.72;4999871;28;45352;-82
2021/06/09 02:28:18;;;;;;;;;5.50;5.00;;;;;17.76;56.29;100376.06;4995251;28;45220;-76
2021/06/09 02:30:45;;;;;;;;;5.75;5.00;;;;;17.74;56.85;100375.25;4998126;28;45237;-78
2021/06/09 02:33:11;;;;;;;;;6.00;5.00;;;;;17.72;56.45;100384.31;4999602;28;44765;-82
2021/06/09 02:35:38;;;;;;;;;5.75;4.00;;;;;17.68;56.85;100378.16;4996425;28;45405;-75
2021/06/09 02:38:05;;;;;;;;;5.75;5.25;;;;;17.68;56.90;100374.59;4999386;28;46132;-77
2021/06/09 02:40:31;;;;;;;;;5.50;5.00;;;;;17.66;56.87;100375.53;4981868;28;45219;-79
2021/06/09 02:42:56;;;;;;;;;4.25;4.00;;;;;17.59;56.72;100382.09;5003604;28;45179;-76
2021/06/09 02:45:22;;;;;;;;;5.00;5.00;;;;;17.53;56.96;100365.31;5003324;28;53862;-75
2021/06/09 02:47:50;;;;;;;;;6.00;4.25;;;;;17.56;56.42;100382.22;5004368;28;44818;-74
2021/06/09 02:50:17;;;;;;;;;5.25;5.00;;;;;17.54;56.41;100383.22;5002293;28;45342;-75
2021/06/09 02:53:06;;;;;;;;;6.00;5.00;;;;;17.51;56.72;100381.53;5001001;28;45311;-76
2021/06/09 02:56:05;;;;;;;;;5.75;4.75;;;;;17.49;56.66;100383.38;5003093;28;45214;-78
2021/06/09 02:58:53;;;;;;;;;5.75;4.25;;;;;17.50;56.44;100380.63;5000968;28;45146;-75
2021/06/09 03:01:33;;;;;;;;;4.00;4.00;;;;;17.46;56.80;100383.50;5001315;28;44881;-75
2021/06/09 03:03:59;;;;;;;;;5.25;5.25;;;;;17.48;56.92;100384.31;5001541;28;44814;-73
2021/06/09 03:06:29;;;;;;;;;4.00;4.00;;;;;17.45;56.77;100388.00;5000444;28;47340;-75
2021/06/09 03:09:13;;;;;;;;;5.00;5.00;;;;;17.44;57.41;100386.25;5000258;28;45259;-74
2021/06/09 03:11:45;;;;;;;;;6.50;5.00;;;;;17.36;57.24;100374.88;5002138;28;45047;-73
2021/06/09 03:17:02;;;;;;;;;4.25;4.25;;;;;17.31;57.46;100376.88;5000948;28;45397;-75
2021/06/09 03:19:39;;;;;;;;;3.00;3.00;;;;;17.38;57.53;100382.91;4999276;28;45767;-73
2021/06/09 03:23:00;;;;;;;;;6.00;5.00;;;;;17.36;57.19;100385.63;5001643;28;45207;-74
2021/06/09 03:25:53;;;;;;;;;5.25;5.00;;;;;17.39;57.52;100390.06;4954279;28;44867;-76
2021/06/09 03:28:27;;;;;;;;;5.25;5.25;;;;;17.35;57.75;100378.53;4943548;28;47442;-75
2021/06/09 03:30:58;;;;;;;;;7.75;5.00;;;;;17.33;57.56;100381.25;4938841;28;45349;-74
2021/06/09 03:33:25;;;;;;;;;6.25;4.75;;;;;17.31;57.86;100377.75;4942266;28;44784;-74
2021/06/09 03:36:19;;;;;;;;;5.00;5.00;;;;;17.34;57.96;100384.84;4938040;28;46449;-75
2021/06/09 03:38:49;;;;;;;;;5.00;5.00;;;;;17.23;57.63;100374.47;4950383;28;45393;-74
2021/06/09 03:41:16;;;;;;;;;7.50;6.00;;;;;17.27;57.48;100391.38;4952618;28;45232;-75
2021/06/09 03:43:46;;;;;;;;;6.00;6.00;;;;;17.21;57.76;100386.22;4933109;28;45012;-75
2021/06/09 03:46:14;;;;;;;;;6.00;6.00;;;;;17.22;57.82;100388.84;4938940;28;44856;-74
2021/06/09 03:48:41;;;;;;;;;6.00;5.00;;;;;17.19;58.31;100386.28;4939122;28;46989;-75
2021/06/09 03:51:11;;;;;;;;;5.50;5.25;;;;;17.22;58.19;100391.53;4929915;28;45243;-90
2021/06/09 04:01:18;;;;;;;;;5.50;5.50;;;;;16.91;58.05;100348.75;5072323;23;45239;-91
2021/06/09 04:03:45;;;;;;;;;5.75;5.75;;;;;17.13;58.48;100384.72;5149496;23;45170;-92
2021/06/09 04:06:14;;;;;;;;;6.25;5.50;;;;;17.11;58.55;100385.69;4989787;23;52850;-88
2021/06/09 04:08:41;;;;;;;;;7.00;5.50;;;;;17.01;58.52;100369.03;4951349;28;45096;-92
2021/06/09 04:11:07;;;;;;;;;8.25;6.75;;;;;17.06;58.49;100375.09;4969397;28;45192;-90
2021/06/09 04:13:33;;;;;;;;;10.25;7.00;;;;;17.04;58.77;100376.94;5186425;22;44831;-92
2021/06/09 04:16:00;;;;;;;;;5.25;4.00;;;;;16.92;59.04;100359.44;5290912;23;46526;-92
2021/06/09 04:18:27;;;;;;;;;8.25;6.00;;;;;17.01;59.12;100369.88;4997385;28;45098;-92
2021/06/09 04:20:53;;;;;;;;;7.25;4.75;;;;;17.09;58.96;100375.00;5002750;28;45334;-93
2021/06/09 04:23:19;;;;;;;;;5.50;5.25;;;;;17.11;59.08;100372.22;5001432;28;55661;-90
2021/06/09 04:25:44;;;;;;;;;5.50;5.50;;;;;17.14;59.18;100372.13;5002663;28;52796;-92
2021/06/09 04:28:10;;;;;;;;;7.50;5.50;;;;;17.07;58.91;100363.41;5001191;28;46262;-92
2021/06/09 04:30:36;;;;;;;;;6.75;5.75;;;;;17.16;58.75;100373.81;5028371;23;45276;-92
2021/06/09 04:33:04;;;;;;;;;8.50;5.25;;;;;17.10;58.95;100374.06;4996428;28;45108;-92
2021/06/09 04:35:42;;;;;;;;;5.50;4.25;;;;;16.97;59.70;100351.25;5002484;28;44792;-92
2021/06/09 04:38:12;;;;;;;;;6.00;6.00;;;;;17.15;59.13;100381.97;5000025;28;46205;-91
2021/06/09 04:40:38;;;;;;;;;5.25;5.25;;;;;17.17;59.77;100386.34;4976072;28;45247;-89
2021/06/09 04:43:03;;;;;;;;;4.25;4.25;;;;;17.19;59.39;100384.47;4985997;28;47758;-87
2021/06/09 04:45:29;;;;;;;;;7.00;7.00;;;;;17.21;59.60;100383.53;4985472;28;45560;-85
2021/06/09 04:47:55;;;;;;;;;5.75;5.50;;;;;17.21;59.75;100384.41;4989987;28;46107;-79
2021/06/09 04:50:24;;;;;;;;;5.25;3.75;;;;;17.18;59.63;100371.97;4997442;28;44898;-78
2021/06/09 04:52:51;;;;;;;;;5.00;5.00;;;;;17.13;59.49;100365.91;5017394;28;44870;-83
2021/06/09 04:55:17;;;;;;;;;7.00;4.50;;;;;17.31;59.38;100391.19;4989851;28;44911;-86
2021/06/09 04:57:43;;;;;;;;;6.00;6.00;;;;;17.37;59.64;100386.53;4988298;28;46311;-86
2021/06/09 05:00:11;;;;;;;;;5.00;5.00;;;;;17.39;59.60;100390.06;4991700;28;44858;-84
2021/06/09 05:02:37;;;;;;;;;6.50;5.75;;;;;17.41;59.58;100394.44;4991145;28;45066;-83
2021/06/09 05:05:03;;;;;;;;;3.75;3.75;;;;;17.44;59.00;100397.00;4993282;28;45019;-86
2021/06/09 05:07:28;;;;;;;;;4.00;4.00;;;;;17.23;58.93;100346.72;4981633;28;47142;-88
2021/06/09 05:09:54;;;;;;;;;5.50;4.00;;;;;17.54;58.59;100393.97;5011818;28;44913;-82
2021/06/09 05:12:25;;;;;;;;;5.75;5.75;;;;;17.59;58.41;100400.03;4996668;28;49141;-80
2021/06/09 05:15:04;;;;;;;;;4.00;4.00;;;;;17.64;58.35;100395.38;4989896;28;45421;-87
2021/06/09 05:17:34;;;;;;;;;5.00;5.00;;;;;17.70;58.38;100394.25;4988249;28;46597;-88
2021/06/09 05:20:00;;;;;;;;;3.00;3.00;;;;;17.72;58.19;100393.25;4974327;28;45671;-87
2021/06/09 05:22:44;;;;;;;;;4.75;4.75;;;;;17.78;58.00;100395.69;4989374;28;45358;-81
2021/06/09 05:25:11;;;;;;;;;4.00;4.00;;;;;17.80;58.06;100391.13;4977358;28;44921;-86
2021/06/09 05:27:38;;;;;;;;;6.00;5.00;;;;;17.86;58.33;100397.22;4972920;28;45508;-85
2021/06/09 05:30:04;;;;;;;;;4.00;4.00;;;;;17.91;58.79;100401.50;4958002;28;45433;-87
2021/06/09 05:32:31;;;;;;;;;5.00;5.00;;;;;17.93;58.19;100396.94;4972926;28;45536;-87
2021/06/09 05:34:57;;;;;;;;;6.25;4.75;;;;;18.00;59.03;100396.72;4972643;28;45735;-85
2021/06/09 05:37:23;;;;;;;;;5.25;3.75;;;;;18.00;58.74;100388.63;4955925;28;48468;-88
2021/06/09 05:39:49;;;;;;;;;6.25;4.00;;;;;18.08;58.39;100389.19;4972776;28;45712;-86
2021/06/09 05:42:15;;;;;;;;;5.50;3.50;;;;;18.16;58.02;100392.44;4956410;28;45593;-84
2021/06/09 05:44:53;;;;;;;;;4.50;4.50;;;;;18.16;57.86;100391.56;4972135;28;45754;-88
2021/06/09 05:47:19;;;;;;;;;4.50;4.50;;;;;18.18;57.42;100382.50;4973858;28;46300;-88
2021/06/09 05:49:44;;;;;;;;;3.00;3.00;;;;;18.31;57.70;100395.44;4973044;28;45564;-86
2021/06/09 05:52:11;;;;;;;;;3.50;3.25;;;;;18.34;57.38;100396.19;4970187;28;45696;-87
2021/06/09 05:54:39;;;;;;;;;3.25;3.00;;;;;18.44;57.83;100396.72;4970339;28;45624;-88
2021/06/09 05:57:07;;;;;;;;;3.25;3.25;;;;;18.50;57.49;100399.13;4955591;28;47090;-88
2021/06/09 05:59:33;;;;;;;;;4.25;3.50;;;;;18.55;57.39;100398.94;4970711;28;45470;-88
2021/06/09 06:01:59;;;;;;;;;3.00;3.00;;;;;18.62;57.49;100403.13;4971228;28;45801;-88
2021/06/09 06:04:25;;;;;;;;;2.25;2.25;;;;;18.66;56.94;100391.28;4951448;28;45651;-87
2021/06/09 06:06:51;;;;;;;;;4.00;4.00;;;;;18.68;57.35;100392.09;4970230;28;45522;-86
2021/06/09 06:09:17;;;;;;;;;4.00;4.00;;;;;18.82;56.83;100402.25;4952012;28;45613;-86
2021/06/09 06:11:43;;;;;;;;;4.00;3.50;;;;;18.89;56.65;100397.47;4900235;28;46831;-85
2021/06/09 06:14:11;;;;;;;;;4.75;4.00;;;;;18.94;56.48;100395.47;4963333;28;45545;-90
2021/06/09 06:16:37;;;;;;;;;5.50;4.00;;;;;19.05;56.26;100395.03;4941307;28;47138;-85
2021/06/09 06:19:03;;;;;;;;;4.00;4.00;;;;;19.12;56.59;100398.31;4970134;28;45903;-88
2021/06/09 06:21:29;;;;;;;;;4.00;3.00;;;;;19.18;56.16;100387.25;4975253;28;45613;-91
2021/06/09 06:23:55;;;;;;;;;3.00;3.00;;;;;19.24;56.80;100395.06;4977953;28;45508;-90
2021/06/09 06:26:21;;;;;;;;;3.00;3.00;;;;;19.31;56.31;100391.16;4977524;28;45497;-89
2021/06/09 06:28:48;;;;;;;;;6.50;3.00;;;;;19.41;56.48;100407.81;4973702;28;45516;-90
2021/06/09 06:31:17;;;;;;;;;4.25;3.50;;;;;19.44;56.25;100387.88;4974324;28;45479;-89
2021/06/09 06:33:45;;;;;;;;;6.75;6.75;;;;;19.52;56.17;100391.97;4968984;28;45721;-84
2021/06/09 06:36:11;;;;;;;;;4.25;4.25;;;;;19.59;56.41;100397.94;4957109;28;47136;-87
2021/06/09 06:38:37;;;;;;;;;5.50;5.00;;;;;19.64;55.95;100390.53;4973052;28;45422;-89
2021/06/09 06:41:06;;;;;;;;;6.00;4.00;;;;;19.75;55.98;100394.53;4973953;28;45368;-88
2021/06/09 06:43:32;;;;;;;;;9.00;6.00;;;;;19.84;56.67;100398.66;4975166;28;45479;-89
2021/06/09 06:45:57;;;;;;;;;9.50;6.50;;;;;19.81;56.82;100378.94;4977939;28;45523;-88
2021/06/09 06:48:23;;;;;;;;;8.00;8.00;;;;;19.91;56.62;100395.59;5000342;28;46822;-87
2021/06/09 06:50:49;;;;;;;;;12.25;11.25;;;;;20.01;55.90;100401.44;4987883;28;48389;-84
2021/06/09 06:53:15;;;;;;;;;13.50;10.75;;;;;20.00;56.19;100390.72;4981371;28;45488;-85
2021/06/09 06:55:40;;;;;;;;;20.50;14.75;;;;;20.07;55.12;100389.44;4984616;28;46569;-83
2021/06/09 06:58:06;;;;;;;;;17.50;12.75;;;;;20.16;56.08;100394.41;4982960;28;53416;-84
2021/06/09 07:00:32;;;;;;;;;17.25;13.75;;;;;20.26;55.99;100398.41;4989809;28;44970;-89
2021/06/09 07:02:59;;;;;;;;;13.25;11.25;;;;;20.34;55.58;100402.53;4981536;28;45476;-85
2021/06/09 07:05:26;;;;;;;;;14.25;14.25;;;;;20.49;55.68;100409.00;4976005;28;46120;-88
2021/06/09 07:07:53;;;;;;;;;14.50;13.00;;;;;20.48;55.41;100388.31;4972469;28;45912;-81
2021/06/09 07:10:19;;;;;;;;;13.25;12.00;;;;;20.69;55.75;100410.69;4973859;28;45816;-86
2021/06/09 07:12:52;;;;;;;;;15.75;12.25;;;;;20.71;55.59;100392.56;4971181;28;45371;-88
2021/06/09 07:15:19;;;;;;;;;14.50;12.00;;;;;20.88;56.09;100395.28;4973428;28;45823;-86
2021/06/09 07:17:53;;;;;;;;;10.50;8.25;;;;;20.87;55.97;100390.84;4973624;28;45543;-90
2021/06/09 07:20:21;;;;;;;;;10.25;8.75;;;;;21.08;55.87;100406.88;4975337;28;45527;-91
2021/06/09 07:22:47;;;;;;;;;10.25;9.25;;;;;21.11;55.64;100401.31;4974875;28;45432;-88
2021/06/09 07:25:12;;;;;;;;;16.75;14.00;;;;;21.27;55.12;100400.53;4972762;28;46263;-89
2021/06/09 07:27:43;;;;;;;;;16.50;13.50;;;;;21.36;55.64;100409.00;4974255;28;45479;-88
2021/06/09 07:30:11;;;;;;;;;13.25;13.25;;;;;21.44;55.55;100408.59;4974885;28;45604;-90
2021/06/09 07:32:41;;;;;;;;;14.00;10.50;;;;;21.48;55.38;100401.16;4965134;28;46124;-89
2021/06/09 07:35:07;;;;;;;;;12.00;10.00;;;;;21.67;55.61;100410.06;4977872;28;45531;-92
2021/06/09 07:37:38;;;;;;;;;13.00;9.00;;;;;21.80;55.55;100407.53;4966967;28;45568;-63
2021/06/09 07:40:07;;;;;;;;;9.00;8.00;;;;;21.95;55.18;100411.25;4971406;28;45535;-65
2021/06/09 07:42:34;;;;;;;;;11.00;9.00;;;;;22.05;54.48;100419.69;4970242;28;45519;-64
2021/06/09 07:45:08;;;;;;;;;12.75;11.00;;;;;22.14;54.31;100413.75;4970488;28;45584;-64
2021/06/09 07:47:35;;;;;;;;;16.75;11.50;;;;;22.25;54.08;100414.97;4971478;28;45601;-64
2021/06/09 07:50:03;;;;;;;;;11.00;10.00;;;;;22.38;55.13;100412.44;4971626;28;45472;-64
2021/06/09 07:52:28;;;;;;;;;9.00;8.00;;;;;22.48;54.63;100407.38;4969399;28;45686;-65
2021/06/09 07:54:56;;;;;;;;;11.25;11.25;;;;;22.54;54.20;100398.88;4952705;28;47417;-64
2021/06/09 07:57:24;;;;;;;;;13.50;13.00;;;;;22.67;52.13;100413.44;4972009;28;45540;-64
2021/06/09 07:59:50;;;;;;;;;11.50;11.25;;;;;22.78;52.61;100409.22;4969724;28;45627;-64
2021/06/09 08:02:20;;;;;;;;;14.75;13.50;;;;;22.89;51.93;100414.88;4968898;28;45484;-65
2021/06/09 08:04:46;;;;;;;;;12.25;11.00;;;;;22.96;51.27;100413.53;4971101;28;46923;-65
2021/06/09 08:07:12;;;;;;;;;9.00;8.00;;;;;23.13;51.67;100417.91;4969115;28;45784;-65
2021/06/09 08:09:38;;;;;;;;;12.75;10.00;;;;;23.30;52.22;100418.75;4970266;28;45587;-65
2021/06/09 08:12:05;;;;;;;;;18.25;14.75;;;;;23.40;50.29;100417.22;4971059;28;51380;-65
2021/06/09 08:14:32;;;;;;;;;11.50;11.25;;;;;23.47;49.52;100424.00;4969903;28;46037;-65
2021/06/09 08:16:57;;;;;;;;;14.00;10.75;;;;;23.52;49.30;100424.59;4969573;28;46651;-64
2021/06/09 08:19:22;;;;;;;;;10.00;10.00;;;;;23.63;50.28;100423.91;4969606;28;52387;-67
2021/06/09 08:21:48;;;;;;;;;12.00;11.25;;;;;23.75;50.36;100408.69;4969501;28;58655;-65
2021/06/09 08:24:13;;;;;;;;;11.00;9.00;;;;;23.87;50.25;100417.88;4971018;28;45928;-68
2021/06/09 08:26:39;;;;;;;;;11.00;9.00;;;;;23.95;51.39;100411.97;4970621;28;45458;-65
2021/06/09 08:29:05;;;;;;;;;7.50;7.50;;;;;24.10;51.07;100415.53;4961110;28;45557;-64
2021/06/09 08:31:32;;;;;;;;;10.75;8.00;;;;;24.21;50.21;100412.09;4969175;28;45832;-65
2021/06/09 08:33:59;;;;;;;;;10.00;9.25;;;;;24.32;50.14;100406.81;4970158;28;47179;-64
2021/06/09 08:36:25;;;;;;;;;14.25;11.00;;;;;24.42;49.34;100401.66;4971649;28;45532;-64
2021/06/09 08:38:55;;;;;;;;;12.00;9.25;;;;;24.56;49.71;100411.59;4968881;28;45615;-65
2021/06/09 08:41:22;;;;;;;;;10.00;10.00;;;;;24.64;49.47;100401.06;4970799;28;45528;-64
2021/06/09 08:43:48;;;;;;;;;10.25;10.00;;;;;24.81;49.00;100404.50;4968906;28;47094;-64
2021/06/09 08:46:15;;;;;;;;;10.00;10.00;;;;;24.87;47.74;100410.38;4970061;28;45676;-63
2021/06/09 08:48:44;;;;;;;;;12.75;10.00;;;;;24.93;48.01;100414.53;4971025;28;45629;-64
2021/06/09 08:51:10;;;;;;;;;11.25;10.00;;;;;25.02;48.82;100404.84;4971335;28;45591;-63
2021/06/09 08:53:42;;;;;;;;;12.00;11.00;;;;;25.11;47.42;100415.09;4969500;28;45648;-69
2021/06/09 08:56:07;;;;;;;;;11.25;10.00;;;;;25.17;46.63;100411.06;4965623;28;45948;-62
2021/06/09 08:58:34;;;;;;;;;8.50;8.50;;;;;25.21;46.62;100402.59;4968296;28;45760;-67
2021/06/09 09:01:07;;;;;;;;;9.50;8.75;;;;;25.23;46.06;100405.22;4965546;28;48374;-64
2021/06/09 09:03:33;;;;;;;;;8.50;8.50;;;;;25.19;47.35;100396.38;4965297;28;47065;-85
2021/06/09 09:05:59;;;;;;;;;10.25;8.50;;;;;25.38;46.44;100412.28;4965728;28;45975;-88
2021/06/09 09:08:24;;;;;;;;;6.00;6.00;;;;;25.42;43.24;100421.13;4969382;28;45520;-88
2021/06/09 09:10:50;;;;;;;;;8.00;8.00;;;;;25.39;44.79;100410.44;4970743;28;59317;-88
2021/06/09 09:13:15;;;;;;;;;5.25;4.75;;;;;25.46;42.12;100419.94;4969615;28;62031;-88
2021/06/09 09:15:41;;;;;;;;;6.25;5.00;;;;;25.52;44.52;100415.91;4953497;28;45632;-88
2021/06/09 09:18:08;;;;;;;;;4.50;4.50;;;;;25.62;45.23;100410.66;4967272;28;52066;-88
2021/06/09 09:20:43;;;;;;;;;4.00;4.00;;;;;25.73;44.91;100409.88;4969145;28;45600;-88
2021/06/09 09:23:19;;;;;;;;;4.25;4.25;;;;;25.93;45.30;100414.75;4971309;28;45857;-88
2021/06/09 09:25:45;;;;;;;;;5.00;5.00;;;;;26.11;45.20;100417.13;4965603;28;45913;-88
2021/06/09 09:28:31;;;;;;;;;5.25;5.25;;;;;26.29;43.78;100423.94;4969501;28;45603;-88
2021/06/09 09:31:12;;;;;;;;;4.25;4.25;;;;;26.42;43.44;100423.88;4985213;28;45541;-88
2021/06/09 09:33:38;;;;;;;;;4.00;4.00;;;;;26.55;42.33;100422.97;4968708;28;47716;-89
2021/06/09 09:36:37;;;;;;;;;3.00;3.00;;;;;26.60;41.87;100412.53;4970262;28;45835;-89
2021/06/09 09:39:20;;;;;;;;;4.50;4.50;;;;;26.80;42.04;100427.44;4952808;28;45524;-88
2021/06/09 09:41:45;;;;;;;;;5.00;5.00;;;;;26.90;42.61;100416.66;4951596;28;45577;-88
2021/06/09 09:44:10;;;;;;;;;6.00;6.00;;;;;27.04;42.51;100429.22;4969957;28;59607;-88
2021/06/09 09:46:50;;;;;;;;;5.50;5.50;;;;;27.23;42.42;100439.56;4967762;28;45574;-87
2021/06/09 09:49:19;;;;;;;;;6.25;6.25;;;;;27.30;41.37;100426.31;4967466;28;45588;-85
2021/06/09 09:51:44;;;;;;;;;8.00;5.75;;;;;27.45;41.27;100433.34;4953253;28;45623;-87
2021/06/09 09:54:11;;;;;;;;;6.50;5.50;;;;;27.52;41.33;100434.56;4970202;28;47363;-87
2021/06/09 09:56:41;;;;;;;;;6.00;5.00;;;;;27.62;40.92;100425.63;4961311;28;46318;-87
2021/06/09 09:59:08;;;;;;;;;4.00;4.00;;;;;27.78;40.39;100425.25;4961467;28;45718;-86
2021/06/09 10:01:38;;;;;;;;;6.50;5.00;;;;;27.87;41.02;100413.56;4969534;28;45574;-89
2021/06/09 10:04:06;;;;;;;;;7.00;5.75;;;;;27.92;39.02;100408.59;4969052;28;45615;-84
2021/06/09 10:06:38;;;;;;;;;4.75;4.75;;;;;28.08;40.86;100421.03;4966223;28;45768;-89
2021/06/09 10:09:17;;;;;;;;;3.50;3.50;;;;;28.21;40.52;100427.22;4969877;28;45545;-89
2021/06/09 10:11:47;;;;;;;;;6.75;4.50;;;;;28.29;39.03;100426.59;4968839;28;45492;-88
2021/06/09 10:14:17;;;;;;;;;4.50;4.25;;;;;28.23;38.98;100414.28;4967479;28;45659;-89
2021/06/09 10:16:43;;;;;;;;;6.00;6.00;;;;;28.37;39.46;100442.34;4968123;28;45617;-90
2021/06/09 10:19:14;;;;;;;;;7.00;5.75;;;;;28.38;39.39;100417.59;4954354;28;45393;-89
2021/06/09 10:21:49;;;;;;;;;5.00;5.00;;;;;28.52;38.29;100432.84;4971084;28;45644;-89
2021/06/09 10:24:15;;;;;;;;;4.00;4.00;;;;;28.65;37.36;100432.66;4971096;28;45653;-90
2021/06/09 10:26:51;;;;;;;;;5.00;5.00;;;;;28.77;37.75;100430.81;4971779;28;45654;-87
2021/06/09 10:29:18;;;;;;;;;5.00;5.00;;;;;28.89;38.43;100426.97;4971085;28;45612;-86
2021/06/09 10:31:53;;;;;;;;;5.50;5.50;;;;;28.97;36.11;100422.72;4970745;28;45608;-86
2021/06/09 10:34:22;;;;;;;;;5.75;5.75;;;;;28.98;35.52;100424.47;4969700;28;46382;-89
2021/06/09 10:36:49;;;;;;;;;5.00;5.00;;;;;28.80;36.42;100405.88;4969034;28;46109;-88
2021/06/09 10:39:16;;;;;;;;;5.00;5.00;;;;;28.92;36.20;100424.00;4968249;28;45562;-88
2021/06/09 10:41:44;;;;;;;;;6.75;5.00;;;;;28.92;37.27;100424.00;4967689;28;45756;-80
2021/06/09 10:44:12;;;;;;;;;7.00;6.75;;;;;28.84;37.65;100415.56;4967774;28;46204;-88
2021/06/09 10:46:40;;;;;;;;;5.25;5.25;;;;;28.96;36.30;100423.72;4966103;28;45634;-90
2021/06/09 10:49:06;;;;;;;;;5.00;5.00;;;;;28.98;36.07;100410.78;4967779;28;45452;-90
2021/06/09 10:51:31;;;;;;;;;6.00;6.00;;;;;29.10;35.39;100428.91;4947544;28;45906;-92
2021/06/09 10:54:00;;;;;;;;;3.50;3.50;;;;;29.13;35.68;100408.56;4960881;28;46883;-92
2021/06/09 10:56:25;;;;;;;;;5.50;5.00;;;;;29.27;37.48;100416.44;4965952;28;45845;-94
2021/06/09 10:58:51;;;;;;;;;5.75;5.75;;;;;29.44;37.35;100416.84;4952932;28;45577;-93
2021/06/09 11:01:28;;;;;;;;;7.75;6.25;;;;;29.69;36.87;100421.00;4955108;28;46568;-87
2021/06/09 11:03:55;;;;;;;;;7.00;7.00;;;;;29.89;35.83;100415.59;4986316;28;47686;-92
2021/06/09 11:06:46;;;;;;;;;9.00;6.75;;;;;30.02;35.60;100407.13;4956229;28;45554;-93
2021/06/09 11:09:22;;;;;;;;;10.75;7.00;;;;;30.25;34.08;100418.75;4973679;28;46787;-91
2021/06/09 11:12:13;;;;;;;;;9.50;8.00;;;;;30.32;35.02;100405.34;4972216;28;45502;-89
2021/06/09 11:14:51;;;;;;;;;5.75;5.75;;;;;30.45;34.96;100411.41;4972613;28;45544;-91
2021/06/09 11:17:47;;;;;;;;;8.00;6.25;;;;;30.65;35.36;100414.19;4971856;28;45851;-93
2021/06/09 11:20:21;;;;;;;;;7.00;6.00;;;;;33.23;33.34;100408.00;4897527;28;45580;-91
2021/06/09 11:22:59;;;;;;;;;5.50;5.50;;;;;36.62;27.07;100392.50;4905756;28;46379;-91
2021/06/09 11:25:29;;;;;;;;;6.00;6.00;;;;;39.80;24.67;100414.47;4882237;28;48233;-91
2021/06/09 11:27:56;;;;;;;;;7.75;7.00;;;;;42.69;23.18;100403.94;4912035;28;45965;-80
2021/06/09 11:30:24;;;;;;;;;7.25;6.00;;;;;45.01;21.36;100420.41;4914111;28;45734;-91
2021/06/09 11:32:57;;;;;;;;;5.75;5.75;;;;;47.19;19.99;100423.81;4912114;28;46007;-92
2021/06/09 11:35:58;;;;;;;;;4.75;4.75;;;;;49.55;18.05;100408.84;4897788;28;47502;-93
2021/06/09 11:38:27;;;;;;;;;4.00;4.00;;;;;51.37;16.24;100425.03;4811239;29;47161;-91
2021/06/09 11:41:08;;;;;;;;;4.50;4.00;;;;;52.78;14.62;100430.59;4820722;29;45519;-90